Time;durP1;ratioP1;P1;durP2;ratioP2;P2;SDS_P1;SDS_P2;PMS_P1;PMS_P2;Temp;Humidity;BMP_temperature;BMP_pressure;BME280_temperature;BME280_humidity;BME280_pressure;Samples;Min_cycle;Max_cycle;Signal;HPM_P1;HPM_P2
2022/07/03 00:02:04;;;;;;;11.75;9.28;;;;;;;20.03;70.08;100709.44;1417004;91;21420;-91
2022/07/03 00:04:31;;;;;;;10.03;9.03;;;;;;;20.04;70.49;100708.91;1434126;91;22509;-91
2022/07/03 00:06:58;;;;;;;9.88;8.88;;;;;;;20.06;69.86;100707.69;1418029;91;21445;-91
2022/07/03 00:09:25;;;;;;;12.43;8.20;;;;;;;20.06;69.67;100714.41;1408316;92;21630;-91
2022/07/03 00:11:52;;;;;;;9.63;8.63;;;;;;;20.08;69.39;100718.73;1403676;92;21670;-90
2022/07/03 00:14:19;;;;;;;9.15;8.25;;;;;;;20.06;69.79;100719.77;1408721;92;21585;-91
2022/07/03 00:16:46;;;;;;;9.80;8.43;;;;;;;20.04;69.68;100710.26;1401741;92;21667;-91
2022/07/03 00:19:13;;;;;;;9.28;8.38;;;;;;;20.03;69.63;100705.41;1416289;92;21585;-91
2022/07/03 00:21:48;;;;;;;11.73;8.33;;;;;;;20.00;69.74;100695.07;1412030;92;21542;-90
2022/07/03 00:24:26;;;;;;;8.80;7.90;;;;;;;19.98;70.06;100695.77;1410940;92;21437;-90
2022/07/03 00:26:54;;;;;;;9.13;8.28;;;;;;;19.97;70.18;100698.68;1406862;92;21569;-90
2022/07/03 00:29:25;;;;;;;9.45;7.65;;;;;;;19.91;70.34;100689.58;1410083;92;22418;-90
2022/07/03 00:31:52;;;;;;;9.45;8.48;;;;;;;19.91;70.32;100686.89;1411214;93;21398;-90
2022/07/03 00:34:20;;;;;;;12.45;8.55;;;;;;;19.88;70.66;100682.41;1399939;93;21561;-90
2022/07/03 00:36:48;;;;;;;11.12;9.33;;;;;;;19.88;70.21;100688.64;1407445;92;21592;-91
2022/07/03 00:39:15;;;;;;;12.28;8.48;;;;;;;19.89;70.54;100689.46;1408865;92;21569;-91
2022/07/03 00:41:47;;;;;;;10.23;7.78;;;;;;;19.90;70.31;100697.82;1413778;92;22562;-91
2022/07/03 00:44:15;;;;;;;9.20;8.30;;;;;;;19.88;70.81;100687.78;1410569;92;22531;-90
2022/07/03 00:46:45;;;;;;;9.35;8.38;;;;;;;19.82;70.99;100686.25;1394039;92;22363;-90
2022/07/03 00:49:13;;;;;;;9.85;8.85;;;;;;;19.80;70.55;100678.89;1399596;92;21550;-91
2022/07/03 00:51:42;;;;;;;8.23;7.30;;;;;;;19.80;70.61;100672.19;1408468;92;22049;-90
2022/07/03 00:54:13;;;;;;;8.43;7.62;;;;;;;19.78;71.32;100670.72;1393372;92;21393;-90
2022/07/03 00:56:43;;;;;;;8.98;7.83;;;;;;;19.77;70.96;100665.88;1417103;92;21446;-91
2022/07/03 00:59:10;;;;;;;11.38;8.13;;;;;;;19.79;70.74;100670.54;1397031;92;21557;-91
2022/07/03 01:01:39;;;;;;;12.15;8.10;;;;;;;19.82;70.81;100674.16;1389814;94;22651;-91
2022/07/03 01:04:24;;;;;;;8.05;7.25;;;;;;;19.84;70.55;100676.11;1392352;92;22294;-92
2022/07/03 01:06:56;;;;;;;9.53;8.38;;;;;;;19.81;70.92;100669.80;1412807;92;21578;-91
2022/07/03 01:09:32;;;;;;;9.18;8.30;;;;;;;19.75;70.98;100669.27;1405845;92;21533;-90
2022/07/03 01:12:10;;;;;;;9.35;8.23;;;;;;;19.70;71.24;100670.38;1407191;91;23044;-91
2022/07/03 01:14:42;;;;;;;12.95;7.25;;;;;;;19.66;70.92;100669.14;1406507;92;21452;-90
2022/07/03 01:17:27;;;;;;;9.08;8.18;;;;;;;19.65;71.36;100666.16;1388704;92;21476;-91
2022/07/03 01:20:03;;;;;;;8.38;7.58;;;;;;;19.64;71.04;100663.10;1422328;91;21408;-91
2022/07/03 01:22:44;;;;;;;10.50;8.18;;;;;;;19.65;71.10;100666.61;1418544;92;21378;-91
2022/07/03 01:25:41;;;;;;;10.25;7.60;;;;;;;19.67;71.95;100672.64;1418772;91;21401;-90
2022/07/03 01:28:19;;;;;;;10.03;7.72;;;;;;;19.66;71.14;100666.45;1407729;92;21336;-89
2022/07/03 01:30:54;;;;;;;8.50;7.77;;;;;;;19.64;71.22;100660.42;1395120;92;21440;-91
2022/07/03 01:33:28;;;;;;;11.97;7.83;;;;;;;19.62;71.16;100657.09;1390890;94;21544;-90
2022/07/03 01:36:06;;;;;;;8.03;7.28;;;;;;;19.61;71.12;100652.77;1399882;93;21565;-90
2022/07/03 01:38:44;;;;;;;12.80;8.28;;;;;;;19.60;71.42;100660.00;1394179;94;21727;-90
2022/07/03 01:41:12;;;;;;;7.78;6.97;;;;;;;19.60;71.74;100656.49;1392568;91;21510;-91
2022/07/03 01:43:49;;;;;;;8.03;7.20;;;;;;;19.59;71.15;100654.81;1407819;91;22575;-91
2022/07/03 01:46:20;;;;;;;8.08;7.10;;;;;;;19.55;71.47;100656.27;1415249;92;21475;-90
2022/07/03 01:48:47;;;;;;;;;;;;;;;19.56;71.45;100656.56;1396378;92;21358;-90
2022/07/03 01:51:16;;;;;;;7.62;6.90;;;;;;;19.55;72.04;100657.61;1381209;92;20317;-90
2022/07/03 01:53:48;;;;;;;10.25;7.53;;;;;;;19.54;71.63;100650.59;1411637;92;21439;-90
2022/07/03 01:56:17;;;;;;;8.50;7.62;;;;;;;19.52;71.91;100651.30;1412021;92;21379;-90
2022/07/03 01:58:44;;;;;;;10.65;7.53;;;;;;;19.50;71.52;100652.00;1402682;92;22149;-90
2022/07/03 02:01:35;;;;;;;8.03;7.23;;;;;;;19.45;72.24;100645.91;1411097;92;21522;-91
2022/07/03 02:04:13;;;;;;;8.35;7.55;;;;;;;19.42;71.86;100641.44;1411584;92;21614;-90
2022/07/03 02:07:01;;;;;;;6.87;6.27;;;;;;;19.41;72.28;100635.77;1406136;92;21645;-90
2022/07/03 02:09:46;;;;;;;12.20;8.20;;;;;;;19.33;72.48;100639.44;1412694;91;21408;-87
2022/07/03 02:12:16;;;;;;;10.43;7.57;;;;;;;19.29;73.20;100644.38;1405360;92;21454;-89
2022/07/03 02:14:55;;;;;;;7.83;7.12;;;;;;;19.30;72.57;100639.32;1388828;94;21476;-90
2022/07/03 02:17:23;;;;;;;10.23;6.73;;;;;;;19.29;72.63;100643.56;1388080;92;22445;-90
2022/07/03 02:20:07;;;;;;;13.73;7.63;;;;;;;19.29;72.27;100643.05;1400888;92;22370;-90
2022/07/03 02:22:42;;;;;;;10.10;6.93;;;;;;;19.29;72.29;100657.80;1407657;92;21379;-89
2022/07/03 02:25:17;;;;;;;7.87;7.10;;;;;;;19.25;72.81;100653.87;1414441;92;21526;-89
2022/07/03 02:27:58;;;;;;;8.20;7.00;;;;;;;19.24;72.61;100660.77;1409943;91;21385;-90
2022/07/03 02:30:27;;;;;;;;;;;;;;;19.23;72.35;100657.26;1420323;92;21452;-88
2022/07/03 02:32:57;;;;;;;8.77;6.63;;;;;;;19.18;73.39;100656.20;1403435;92;20421;-89
2022/07/03 02:35:32;;;;;;;9.63;7.10;;;;;;;19.18;72.63;100657.02;1391003;94;22459;-89
2022/07/03 02:38:19;;;;;;;9.03;7.13;;;;;;;19.15;72.92;100655.55;1394924;94;23533;-89
2022/07/03 02:41:16;;;;;;;8.10;6.23;;;;;;;19.13;73.13;100655.44;1366630;92;21644;-89
2022/07/03 02:44:00;;;;;;;7.83;6.37;;;;;;;19.09;73.27;100659.55;1395638;91;21608;-88
2022/07/03 02:46:54;;;;;;;8.00;7.00;;;;;;;19.11;73.16;100658.33;1397015;92;21484;-88
2022/07/03 02:49:44;;;;;;;7.40;6.70;;;;;;;19.06;73.50;100654.07;1389539;93;21366;-88
2022/07/03 02:52:41;;;;;;;9.70;7.25;;;;;;;19.06;73.29;100653.25;1399370;93;21609;-90
2022/07/03 02:55:19;;;;;;;8.70;6.43;;;;;;;19.07;73.18;100654.89;1396090;91;21621;-89
2022/07/03 02:57:52;;;;;;;8.77;6.93;;;;;;;19.10;73.18;100655.34;1391694;94;21454;-89
2022/07/03 03:00:19;;;;;;;8.53;6.63;;;;;;;19.10;73.97;100658.52;1394796;92;21689;-90
2022/07/03 03:02:55;;;;;;;10.90;6.93;;;;;;;19.11;73.46;100658.86;1390475;92;21344;-89
2022/07/03 03:05:30;;;;;;;19.27;7.50;;;;;;;19.15;73.55;100661.44;1383470;93;22385;-89
2022/07/03 03:08:27;;;;;;;7.27;6.57;;;;;;;19.20;73.41;100668.39;1393620;93;21477;-89
2022/07/03 03:10:59;;;;;;;9.30;6.60;;;;;;;19.20;73.65;100659.00;1399937;91;21531;-89
2022/07/03 03:13:31;;;;;;;9.00;7.15;;;;;;;19.19;73.51;100664.06;1414199;92;21519;-89
2022/07/03 03:16:07;;;;;;;8.53;6.43;;;;;;;19.16;73.21;100661.75;1406154;92;22187;-89
2022/07/03 03:18:38;;;;;;;10.10;6.13;;;;;;;19.15;73.36;100659.58;1393527;93;21513;-89
2022/07/03 03:21:17;;;;;;;7.60;6.80;;;;;;;19.17;73.52;100663.42;1399469;94;21588;-89
2022/07/03 03:23:52;;;;;;;7.13;6.30;;;;;;;19.16;73.54;100659.06;1385365;92;21402;-89
2022/07/03 03:26:24;;;;;;;7.03;5.90;;;;;;;19.20;73.42;100664.36;1382622;94;21432;-89
2022/07/03 03:28:54;;;;;;;13.77;6.43;;;;;;;19.20;73.74;100667.05;1400835;92;21482;-89
2022/07/03 03:31:22;;;;;;;5.53;5.00;;;;;;;19.22;73.58;100670.38;1389625;93;22409;-90
2022/07/03 03:33:51;;;;;;;7.08;6.33;;;;;;;19.26;73.78;100671.62;1400545;93;22401;-89
2022/07/03 03:36:20;;;;;;;9.27;7.17;;;;;;;19.31;73.55;100673.20;1389002;93;21477;-90
2022/07/03 03:38:49;;;;;;;6.67;6.08;;;;;;;19.35;73.58;100668.25;1395730;92;21439;-89
2022/07/03 03:41:16;;;;;;;6.53;5.87;;;;;;;19.36;73.65;100669.41;1392884;94;21395;-89
2022/07/03 03:43:44;;;;;;;7.72;5.90;;;;;;;19.38;73.80;100674.05;1386782;92;21381;-89
2022/07/03 03:46:11;;;;;;;9.28;6.15;;;;;;;19.45;73.29;100672.75;1392305;94;21403;-90
2022/07/03 03:48:39;;;;;;;6.72;6.05;;;;;;;19.44;73.99;100668.91;1401426;92;21490;-89
2022/07/03 03:51:07;;;;;;;9.38;5.83;;;;;;;19.51;73.55;100675.98;1415104;92;22672;-89
2022/07/03 03:53:34;;;;;;;6.90;5.58;;;;;;;19.56;73.55;100678.04;1410672;91;21568;-89
2022/07/03 03:56:06;;;;;;;5.50;4.70;;;;;;;19.62;73.50;100685.29;1419367;91;21393;-89
2022/07/03 03:58:37;;;;;;;5.85;5.08;;;;;;;19.67;73.34;100677.50;1393653;94;21557;-90
2022/07/03 04:01:07;;;;;;;6.30;5.20;;;;;;;19.71;73.19;100673.40;1392610;92;21389;-89
2022/07/03 04:03:36;;;;;;;6.12;5.25;;;;;;;19.73;72.95;100671.84;1384236;94;21366;-89
2022/07/03 04:06:03;;;;;;;9.25;4.95;;;;;;;19.79;72.95;100667.85;1404451;92;22591;-89
2022/07/03 04:08:31;;;;;;;6.95;5.08;;;;;;;19.85;73.13;100667.53;1413616;92;21520;-89
2022/07/03 04:10:59;;;;;;;6.22;4.83;;;;;;;19.95;73.23;100667.16;1414933;92;21783;-88
2022/07/03 04:13:26;;;;;;;7.83;5.53;;;;;;;20.01;72.47;100673.88;1406552;91;21527;-89
2022/07/03 04:15:54;;;;;;;5.72;5.08;;;;;;;20.10;72.45;100672.34;1411481;92;21565;-88
2022/07/03 04:18:23;;;;;;;7.53;5.65;;;;;;;20.14;72.53;100673.58;1410686;92;21551;-89
2022/07/03 04:20:50;;;;;;;5.67;4.75;;;;;;;20.21;71.95;100665.85;1391716;92;21329;-90
2022/07/03 04:23:18;;;;;;;6.78;5.22;;;;;;;20.25;71.55;100663.58;1402800;92;22442;-89
2022/07/03 04:25:45;;;;;;;7.45;5.00;;;;;;;20.32;71.77;100666.29;1408039;92;22758;-90
2022/07/03 04:28:12;;;;;;;6.00;4.72;;;;;;;20.36;71.33;100668.34;1415542;91;21580;-89
2022/07/03 04:30:40;;;;;;;8.65;4.90;;;;;;;20.40;71.65;100668.75;1404953;92;21561;-88
2022/07/03 04:33:07;;;;;;;6.05;5.15;;;;;;;20.42;71.16;100674.75;1394814;92;21560;-88
2022/07/03 04:35:34;;;;;;;7.37;4.55;;;;;;;20.50;70.98;100670.52;1412644;92;21542;-88
2022/07/03 04:38:01;;;;;;;5.83;5.25;;;;;;;20.55;70.75;100670.77;1401731;92;21577;-88
2022/07/03 04:40:28;;;;;;;11.55;4.75;;;;;;;20.66;71.16;100672.83;1409419;92;21542;-88
2022/07/03 04:42:55;;;;;;;9.33;4.60;;;;;;;20.72;70.47;100673.34;1404397;92;21453;-88
2022/07/03 04:45:23;;;;;;;5.85;5.08;;;;;;;20.78;70.14;100668.17;1407271;92;21489;-88
2022/07/03 04:47:50;;;;;;;8.00;5.00;;;;;;;20.86;70.44;100667.92;1422020;92;21578;-89
2022/07/03 04:50:17;;;;;;;8.03;4.80;;;;;;;20.84;69.50;100668.16;1423101;92;21623;-88
2022/07/03 04:52:44;;;;;;;4.85;4.45;;;;;;;20.93;69.48;100660.69;1416729;91;21467;-89
2022/07/03 04:55:12;;;;;;;5.25;4.75;;;;;;;20.94;69.05;100659.64;1419798;92;22206;-88
2022/07/03 04:57:39;;;;;;;5.53;5.03;;;;;;;20.99;68.94;100657.16;1408037;92;21570;-89
2022/07/03 05:00:08;;;;;;;6.00;4.87;;;;;;;21.00;68.90;100661.48;1414570;92;21371;-89
2022/07/03 05:02:36;;;;;;;6.95;5.12;;;;;;;21.04;68.60;100662.73;1420337;92;21349;-90
2022/07/03 05:05:03;;;;;;;4.92;4.22;;;;;;;21.21;68.72;100667.14;1411202;92;21534;-89
2022/07/03 05:07:30;;;;;;;8.98;5.10;;;;;;;21.27;68.52;100670.86;1401207;91;22497;-90
2022/07/03 05:09:58;;;;;;;7.10;5.05;;;;;;;21.39;68.13;100667.31;1412308;92;21490;-90
2022/07/03 05:12:25;;;;;;;5.45;4.50;;;;;;;21.42;67.34;100671.45;1407302;92;21613;-89
2022/07/03 05:14:53;;;;;;;6.90;4.95;;;;;;;21.53;67.44;100673.47;1410929;92;21449;-88
2022/07/03 05:17:20;;;;;;;5.03;4.47;;;;;;;21.66;67.00;100682.00;1411511;92;21571;-89
2022/07/03 05:19:47;;;;;;;11.88;4.53;;;;;;;21.74;66.63;100675.55;1415320;92;21535;-89
2022/07/03 05:22:17;;;;;;;5.95;4.92;;;;;;;21.76;65.85;100670.78;1389606;92;21337;-89
2022/07/03 05:24:43;;;;;;;6.28;5.67;;;;;;;21.89;66.12;100669.88;1368824;94;21448;-88
2022/07/03 05:27:10;;;;;;;5.60;5.08;;;;;;;22.14;65.98;100666.70;1386293;94;21484;-82
2022/07/03 05:29:37;;;;;;;6.17;4.47;;;;;;;22.14;65.98;100666.70;1396455;94;21514;-82
2022/07/03 05:32:05;;;;;;;5.00;4.42;;;;;;;22.26;65.52;100677.64;1417210;92;21497;-82
2022/07/03 05:34:32;;;;;;;4.72;4.20;;;;;;;22.37;65.21;100668.85;1408514;91;22420;-82
2022/07/03 05:37:00;;;;;;;8.03;4.50;;;;;;;22.48;65.00;100676.77;1419083;92;21468;-83
2022/07/03 05:39:32;;;;;;;5.60;4.90;;;;;;;22.53;63.71;100680.45;1411797;92;21372;-82
2022/07/03 05:42:01;;;;;;;6.47;4.95;;;;;;;22.59;63.93;100681.97;1413834;92;21567;-82
2022/07/03 05:44:28;;;;;;;5.55;4.90;;;;;;;22.74;64.15;100683.80;1413354;92;22274;-82
2022/07/03 05:46:57;;;;;;;4.58;3.77;;;;;;;22.87;63.74;100688.23;1402370;91;21612;-84
2022/07/03 05:49:24;;;;;;;8.23;5.67;;;;;;;22.96;62.40;100684.25;1406151;91;21448;-83
2022/07/03 05:51:51;;;;;;;6.20;5.15;;;;;;;23.12;62.71;100681.48;1390539;92;22377;-82
2022/07/03 05:54:18;;;;;;;5.55;4.40;;;;;;;23.18;62.49;100681.39;1388412;94;21439;-83
2022/07/03 05:56:45;;;;;;;5.55;4.87;;;;;;;23.27;61.85;100686.50;1398302;94;21373;-83
2022/07/03 05:59:12;;;;;;;5.25;4.75;;;;;;;23.32;61.85;100690.18;1394149;92;21470;-84
2022/07/03 06:01:39;;;;;;;5.58;4.30;;;;;;;23.42;61.63;100691.02;1394305;92;21601;-83
2022/07/03 06:04:06;;;;;;;8.10;5.53;;;;;;;23.54;61.35;100691.91;1403605;92;22185;-83
2022/07/03 06:06:34;;;;;;;5.97;4.55;;;;;;;23.62;61.14;100683.99;1407017;92;21314;-82
2022/07/03 06:09:01;;;;;;;5.53;4.47;;;;;;;23.71;60.94;100686.73;1388064;92;21320;-82
2022/07/03 06:11:30;;;;;;;7.00;4.37;;;;;;;23.77;60.31;100687.17;1395000;92;21367;-83
2022/07/03 06:13:57;;;;;;;15.23;4.40;;;;;;;23.94;60.43;100694.62;1391514;91;21476;-83
2022/07/03 06:16:25;;;;;;;6.62;5.10;;;;;;;24.02;60.05;100688.89;1417388;91;21519;-82
2022/07/03 06:18:52;;;;;;;4.62;4.22;;;;;;;24.19;59.95;100693.12;1432047;91;21509;-83
2022/07/03 06:21:20;;;;;;;4.30;3.90;;;;;;;24.21;59.01;100691.02;1416743;91;22602;-83
2022/07/03 06:23:47;;;;;;;6.75;3.62;;;;;;;24.25;58.78;100692.19;1395342;93;21574;-84
2022/07/03 06:26:15;;;;;;;5.60;4.58;;;;;;;24.43;59.09;100691.34;1405165;91;21561;-82
2022/07/03 06:28:43;;;;;;;7.80;5.05;;;;;;;24.59;58.87;100689.82;1412454;91;22290;-82
2022/07/03 06:31:10;;;;;;;6.58;3.90;;;;;;;24.67;57.93;100690.83;1395420;92;22289;-82
2022/07/03 06:33:37;;;;;;;5.10;4.33;;;;;;;24.73;58.25;100681.23;1390176;94;21429;-82
2022/07/03 06:36:05;;;;;;;6.28;4.17;;;;;;;24.79;57.75;100681.36;1393795;92;21521;-83
2022/07/03 06:38:32;;;;;;;9.05;4.40;;;;;;;24.81;57.27;100681.95;1397218;92;21529;-83
2022/07/03 06:41:02;;;;;;;6.45;4.45;;;;;;;24.83;56.71;100686.08;1394293;91;21477;-82
2022/07/03 06:43:30;;;;;;;4.92;3.62;;;;;;;24.91;56.95;100674.87;1400725;92;21519;-81
2022/07/03 06:45:57;;;;;;;4.70;4.25;;;;;;;25.09;57.37;100668.52;1402802;92;21528;-82
2022/07/03 06:48:24;;;;;;;4.47;3.80;;;;;;;25.09;56.39;100671.23;1407137;92;21524;-81
2022/07/03 06:50:51;;;;;;;7.15;4.33;;;;;;;25.24;57.01;100666.69;1408482;92;22409;-86
2022/07/03 06:53:19;;;;;;;8.25;4.40;;;;;;;25.26;56.02;100662.38;1399179;93;21609;-87
2022/07/03 06:55:46;;;;;;;7.30;4.40;;;;;;;25.35;55.54;100660.96;1392205;92;21446;-87
2022/07/03 06:58:14;;;;;;;6.15;4.80;;;;;;;25.56;56.04;100660.30;1387584;94;21446;-87
2022/07/03 07:00:42;;;;;;;7.60;4.45;;;;;;;25.61;55.18;100663.11;1395517;92;21343;-87
2022/07/03 07:03:10;;;;;;;4.70;4.10;;;;;;;25.63;55.25;100663.67;1413274;92;21422;-88
2022/07/03 07:05:37;;;;;;;5.90;4.62;;;;;;;25.82;55.10;100666.20;1404520;92;21452;-88
2022/07/03 07:08:04;;;;;;;6.53;4.10;;;;;;;25.99;55.14;100667.63;1404490;92;22482;-88
2022/07/03 07:10:32;;;;;;;5.60;4.30;;;;;;;26.16;54.36;100664.95;1397422;90;22012;-86
2022/07/03 07:12:59;;;;;;;6.62;4.85;;;;;;;26.27;54.29;100662.70;1400281;90;21430;-87
2022/07/03 07:15:27;;;;;;;9.75;4.35;;;;;;;26.16;53.62;100665.77;1408572;92;21549;-87
2022/07/03 07:17:54;;;;;;;6.67;4.45;;;;;;;26.22;53.03;100671.56;1413847;92;23515;-88
2022/07/03 07:20:22;;;;;;;6.97;4.58;;;;;;;26.13;53.09;100665.44;1403261;91;22486;-86
2022/07/03 07:22:49;;;;;;;6.67;4.45;;;;;;;26.07;52.90;100662.63;1403135;91;21466;-86
2022/07/03 07:25:18;;;;;;;8.03;4.67;;;;;;;26.19;53.44;100661.74;1389459;94;21865;-87
2022/07/03 07:27:45;;;;;;;4.65;4.12;;;;;;;26.19;53.23;100650.89;1404719;92;21401;-89
2022/07/03 07:30:13;;;;;;;5.60;4.33;;;;;;;26.34;53.28;100653.30;1409173;92;21430;-91
2022/07/03 07:32:40;;;;;;;6.72;4.70;;;;;;;26.51;53.01;100645.20;1390783;92;22422;-87
2022/07/03 07:35:13;;;;;;;15.63;4.67;;;;;;;26.54;52.64;100639.27;1385950;92;21539;-88
2022/07/03 07:37:41;;;;;;;6.47;4.83;;;;;;;26.59;51.50;100640.44;1386234;94;22517;-87
2022/07/03 07:40:09;;;;;;;5.58;4.08;;;;;;;26.67;52.23;100642.19;1394278;92;22205;-88
2022/07/03 07:42:36;;;;;;;4.83;4.40;;;;;;;26.70;51.26;100642.20;1396074;92;22732;-88
2022/07/03 07:45:05;;;;;;;6.55;4.85;;;;;;;26.69;51.66;100641.92;1396260;94;21425;-87
2022/07/03 07:47:32;;;;;;;5.53;4.60;;;;;;;26.86;51.64;100641.36;1387738;94;21411;-87
2022/07/03 07:49:59;;;;;;;6.67;4.40;;;;;;;26.85;50.78;100641.08;1385707;94;21485;-87
2022/07/03 07:52:26;;;;;;;8.43;5.33;;;;;;;26.94;51.60;100641.47;1391240;94;21463;-87
2022/07/03 07:54:59;;;;;;;11.12;5.45;;;;;;;27.10;51.66;100642.48;1387655;94;21677;-88
2022/07/03 07:57:37;;;;;;;12.20;5.25;;;;;;;27.27;50.41;100637.02;1390807;91;21605;-87
2022/07/03 08:00:14;;;;;;;7.42;5.05;;;;;;;27.32;50.31;100640.63;1473680;92;21497;-87
2022/07/03 08:05:35;;;;;;;7.25;5.33;;;;;;;27.53;50.20;100632.70;1440568;94;21820;-88
2022/07/03 08:08:13;;;;;;;12.23;5.30;;;;;;;27.66;49.71;100627.69;1386847;94;21484;-88
2022/07/03 08:10:46;;;;;;;5.92;5.33;;;;;;;27.87;50.09;100624.65;1405594;92;22006;-87
2022/07/03 08:13:16;;;;;;;12.80;5.30;;;;;;;27.96;49.62;100622.83;1403585;92;21695;-87
2022/07/03 08:15:44;;;;;;;5.08;4.55;;;;;;;28.01;48.89;100622.88;1415999;92;21431;-87
2022/07/03 08:18:11;;;;;;;7.75;4.53;;;;;;;28.12;48.44;100625.97;1408699;92;21578;-87
2022/07/03 08:20:39;;;;;;;7.75;4.55;;;;;;;28.02;48.57;100617.70;1411673;92;21423;-88
2022/07/03 08:23:06;;;;;;;7.75;4.37;;;;;;;28.17;48.62;100620.58;1414510;91;21378;-87
2022/07/03 08:25:33;;;;;;;7.28;5.25;;;;;;;28.22;48.52;100620.59;1399399;91;22354;-87
2022/07/03 08:28:01;;;;;;;5.37;4.60;;;;;;;28.30;48.29;100626.10;1407212;92;21615;-87
2022/07/03 08:30:28;;;;;;;6.53;4.78;;;;;;;28.27;47.68;100634.25;1411186;92;21864;-88
2022/07/03 08:32:58;;;;;;;8.43;5.40;;;;;;;28.42;47.92;100624.04;1409437;91;21659;-88
2022/07/03 08:35:27;;;;;;;6.05;5.00;;;;;;;28.54;47.52;100617.04;1408743;92;21837;-87
2022/07/03 08:37:56;;;;;;;5.97;4.73;;;;;;;28.67;47.49;100618.50;1398009;91;21474;-88
2022/07/03 08:40:23;;;;;;;7.30;4.65;;;;;;;28.74;47.02;100614.98;1413600;91;21482;-89
2022/07/03 08:42:58;;;;;;;14.58;5.42;;;;;;;28.86;46.91;100610.68;1406299;92;21371;-88
2022/07/03 08:45:26;;;;;;;6.20;5.17;;;;;;;29.05;47.04;100609.17;1439112;92;22636;-88
2022/07/03 08:47:59;;;;;;;5.28;4.75;;;;;;;29.33;46.82;100617.46;1395183;92;21409;-88
2022/07/03 08:50:26;;;;;;;9.43;4.70;;;;;;;29.40;46.34;100616.65;1387711;93;21521;-87
2022/07/03 08:52:53;;;;;;;4.55;4.10;;;;;;;29.64;46.75;100614.30;1390402;94;21395;-88
2022/07/03 08:55:21;;;;;;;7.17;4.67;;;;;;;29.75;43.95;100619.23;1386937;94;21640;-87
2022/07/03 08:57:50;;;;;;;5.60;4.17;;;;;;;29.83;45.25;100614.58;1382975;94;21639;-88
2022/07/03 09:00:19;;;;;;;8.13;5.17;;;;;;;29.84;44.81;100614.06;1388875;92;21452;-88
2022/07/03 09:02:49;;;;;;;9.83;4.60;;;;;;;29.97;44.89;100614.88;1389823;94;21461;-88
2022/07/03 09:05:18;;;;;;;17.02;5.45;;;;;;;30.16;44.96;100622.53;1389242;92;22487;-87
2022/07/03 09:07:46;;;;;;;59.90;10.38;;;;;;;30.30;44.71;100621.73;1396930;92;21387;-88
2022/07/03 09:10:18;;;;;;;26.23;6.37;;;;;;;30.36;42.40;100617.09;1412097;92;21541;-88
2022/07/03 09:12:48;;;;;;;8.60;5.00;;;;;;;30.23;42.65;100613.53;1426058;92;21460;-88
2022/07/03 09:15:16;;;;;;;9.63;5.37;;;;;;;30.44;43.26;100611.59;1400976;92;21440;-87
2022/07/03 09:18:07;;;;;;;9.93;5.65;;;;;;;30.28;42.59;100608.08;1398025;94;21699;-89
2022/07/03 09:20:41;;;;;;;10.63;6.85;;;;;;;30.46;43.29;100603.40;1398510;92;22403;-88
2022/07/03 09:23:20;;;;;;;6.97;4.92;;;;;;;30.63;43.01;100600.92;1396536;92;21541;-89
2022/07/03 09:25:58;;;;;;;6.00;4.28;;;;;;;30.83;43.09;100602.25;1407217;92;21586;-90
2022/07/03 09:28:50;;;;;;;11.40;5.30;;;;;;;30.74;41.63;100597.06;1411616;92;21393;-90
2022/07/03 09:31:20;;;;;;;15.28;3.92;;;;;;;30.89;42.69;100597.03;1407980;92;21581;-90
2022/07/03 09:34:01;;;;;;;21.02;5.42;;;;;;;31.03;42.39;100595.33;1407045;92;21462;-89
2022/07/03 09:36:50;;;;;;;7.70;4.55;;;;;;;31.10;41.99;100592.84;1390022;92;21410;-88
2022/07/03 09:39:26;;;;;;;;;;;;;;;31.26;41.39;100580.74;1393316;93;23308;-89
2022/07/03 09:42:06;;;;;;;6.78;4.72;;;;;;;31.34;41.25;100578.78;1393843;92;20340;-90
2022/07/03 09:44:46;;;;;;;9.08;4.85;;;;;;;31.10;41.39;100588.74;1374170;93;21476;-90
2022/07/03 09:47:18;;;;;;;11.22;5.83;;;;;;;31.28;42.10;100581.28;1389290;94;22349;-92
2022/07/03 09:49:51;;;;;;;10.13;4.65;;;;;;;31.44;40.38;100582.02;1399753;92;21410;-90
2022/07/03 09:52:33;;;;;;;5.35;4.30;;;;;;;31.63;41.26;100588.47;1405212;92;22523;-89
2022/07/03 09:55:13;;;;;;;4.25;3.90;;;;;;;31.76;40.83;100576.05;1354928;94;22436;-90
2022/07/03 09:57:46;;;;;;;6.95;5.08;;;;;;;31.47;39.12;100583.64;1353718;96;22799;-88
2022/07/03 10:00:23;;;;;;;7.12;4.62;;;;;;;31.60;39.92;100569.89;1342671;96;22137;-90
2022/07/03 10:03:03;;;;;;;7.03;4.30;;;;;;;31.78;40.20;100567.57;1355774;95;23596;-85
2022/07/03 10:05:39;;;;;;;6.85;4.25;;;;;;;31.98;40.16;100568.80;1349835;97;22558;-89
2022/07/03 10:08:13;;;;;;;8.73;4.05;;;;;;;32.16;39.33;100568.63;1346603;98;21683;-91
2022/07/03 10:10:47;;;;;;;5.47;4.30;;;;;;;32.29;38.43;100568.52;1376982;95;22390;-89
2022/07/03 10:13:15;;;;;;;8.00;4.80;;;;;;;32.43;39.16;100568.09;1381943;93;21651;-89
2022/07/03 10:15:44;;;;;;;29.52;6.70;;;;;;;32.62;38.57;100563.25;1380553;95;21741;-90
2022/07/03 10:18:13;;;;;;;6.03;4.45;;;;;;;32.76;38.35;100555.41;1381889;94;21651;-91
2022/07/03 10:20:49;;;;;;;6.53;4.47;;;;;;;32.83;38.64;100554.22;1377980;94;21658;-90
2022/07/03 10:23:21;;;;;;;8.85;4.50;;;;;;;32.95;38.47;100549.16;1311393;95;22289;-89
2022/07/03 10:25:48;;;;;;;4.47;3.80;;;;;;;32.89;38.30;100548.97;1368057;95;21746;-90
2022/07/03 10:28:19;;;;;;;8.00;4.40;;;;;;;32.99;38.11;100544.73;1371330;95;21613;-91
2022/07/03 10:30:52;;;;;;;10.05;4.65;;;;;;;33.18;38.01;100542.83;1362067;95;21423;-89
2022/07/03 10:33:20;;;;;;;8.03;4.72;;;;;;;33.35;37.95;100541.50;1405224;91;21466;-91
2022/07/03 10:35:55;;;;;;;6.35;4.33;;;;;;;33.49;37.54;100542.34;1403873;91;21568;-91
2022/07/03 10:38:41;;;;;;;13.25;5.05;;;;;;;33.67;37.57;100540.19;1392190;92;21440;-93
2022/07/03 10:47:44;;;;;;;9.90;4.62;;;;;;;33.30;36.77;100536.08;1412283;91;21505;-90
2022/07/03 10:50:22;;;;;;;4.65;4.10;;;;;;;33.28;36.58;100525.39;1405269;92;22538;-91
2022/07/03 10:52:50;;;;;;;10.55;5.00;;;;;;;33.33;37.19;100528.06;1410197;91;21483;-90
2022/07/03 10:55:19;;;;;;;8.60;4.37;;;;;;;33.43;37.05;100527.08;1410298;92;21562;-90
2022/07/03 10:58:09;;;;;;;11.75;3.95;;;;;;;33.23;35.96;100520.82;1409039;92;21607;-90
2022/07/03 11:00:56;;;;;;;6.85;4.55;;;;;;;33.01;36.29;100512.36;1411908;92;21547;-90
2022/07/03 11:03:55;;;;;;;10.48;4.65;;;;;;;32.90;36.92;100513.02;1406910;92;21519;-90
2022/07/03 11:06:48;;;;;;;6.28;4.45;;;;;;;32.96;37.10;100514.58;1382972;93;21509;-90
2022/07/03 11:09:15;;;;;;;18.12;4.75;;;;;;;32.99;37.09;100511.84;1401815;92;21490;-91
2022/07/03 11:11:56;;;;;;;11.12;3.72;;;;;;;33.01;37.31;100506.32;1396039;91;23369;-91
2022/07/03 11:14:26;;;;;;;5.55;3.85;;;;;;;33.27;37.17;100510.06;1423346;90;22565;-91
2022/07/03 11:17:20;;;;;;;6.12;4.08;;;;;;;33.63;36.83;100510.32;1407892;92;22278;-90
2022/07/03 11:23:23;;;;;;;5.53;4.08;;;;;;;33.93;36.34;100508.19;1389430;92;21488;-90
2022/07/03 11:25:53;;;;;;;6.92;4.00;;;;;;;33.88;34.73;100500.03;1391957;90;21457;-91
2022/07/03 11:28:38;;;;;;;4.95;3.72;;;;;;;33.82;35.28;100498.50;1401623;92;22419;-89
2022/07/03 11:31:14;;;;;;;5.50;4.12;;;;;;;33.68;35.54;100497.09;1412788;92;22560;-89
2022/07/03 11:33:47;;;;;;;9.20;4.12;;;;;;;33.92;35.80;100496.92;1411103;92;22338;-89
2022/07/03 11:36:20;;;;;;;4.58;4.08;;;;;;;33.91;35.61;100499.42;1409941;92;21391;-88
2022/07/03 11:39:02;;;;;;;9.25;3.77;;;;;;;34.00;35.23;100498.17;1408796;92;22374;-88
2022/07/03 11:41:40;;;;;;;8.68;4.08;;;;;;;34.06;35.13;100488.75;1408185;92;21342;-89
2022/07/03 11:44:10;;;;;;;6.00;3.45;;;;;;;34.02;34.29;100487.70;1408286;91;21386;-90
2022/07/03 11:46:40;;;;;;;;;;;;;;;34.06;33.74;100484.63;1401294;92;21563;-88
2022/07/03 11:49:17;;;;;;;6.58;3.75;;;;;;;33.90;33.37;100484.89;1411631;91;20944;-90
2022/07/03 11:51:58;;;;;;;9.53;3.98;;;;;;;34.04;34.35;100483.58;1413348;93;22568;-90
2022/07/03 11:54:28;;;;;;;6.92;4.60;;;;;;;34.32;34.03;100475.33;1408186;92;21839;-90
2022/07/03 11:56:55;;;;;;;8.45;4.15;;;;;;;34.56;33.83;100475.16;1411519;92;22463;-89
2022/07/03 11:59:25;;;;;;;7.00;4.05;;;;;;;34.86;33.86;100464.04;1403576;92;21475;-90